Time;durP1;ratioP1;P1;durP2;ratioP2;P2;SDS_P1;SDS_P2;PMS_P1;PMS_P2;Temp;Humidity;BMP_temperature;BMP_pressure;BME280_temperature;BME280_humidity;BME280_pressure;Samples;Min_cycle;Max_cycle;Signal;HPM_P1;HPM_P2
2022/04/14 00:02:28;;;;;;;16.10;10.80;;;8.80;89.30;;;;;;5096871;28;20180;-71
2022/04/14 00:04:59;;;;;;;31.40;11.52;;;8.70;89.50;;;;;;5096505;28;20199;-71
2022/04/14 00:07:27;;;;;;;18.75;10.93;;;8.70;89.30;;;;;;5096633;28;20183;-71
2022/04/14 00:09:54;;;;;;;19.10;12.45;;;8.70;89.50;;;;;;5096944;28;20282;-71
2022/04/14 00:12:20;;;;;;;16.60;11.68;;;8.60;89.50;;;;;;5115241;28;20261;-71
2022/04/14 00:14:48;;;;;;;16.08;11.35;;;8.60;89.50;;;;;;5096734;28;20208;-71
2022/04/14 00:17:14;;;;;;;17.48;11.60;;;8.50;89.70;;;;;;5113883;27;20538;-71
2022/04/14 00:19:53;;;;;;;20.53;11.50;;;8.50;89.70;;;;;;5117068;27;20299;-71
2022/04/14 00:22:21;;;;;;;18.50;11.60;;;8.40;89.90;;;;;;5116994;27;20162;-71
2022/04/14 00:24:56;;;;;;;14.32;9.65;;;8.40;90.00;;;;;;5116599;27;20245;-71
2022/04/14 00:27:45;;;;;;;21.52;12.52;;;8.30;90.40;;;;;;5117174;27;20258;-71
2022/04/14 00:30:15;;;;;;;17.48;11.25;;;8.30;90.10;;;;;;5112488;27;20214;-71
2022/04/14 00:32:49;;;;;;;19.10;10.95;;;8.20;90.10;;;;;;5117087;27;20296;-71
2022/04/14 00:35:18;;;;;;;18.30;10.52;;;8.20;90.20;;;;;;5116883;27;20225;-71
2022/04/14 00:37:49;;;;;;;15.50;10.95;;;8.20;90.20;;;;;;5116934;27;20662;-71
2022/04/14 00:40:18;;;;;;;18.38;10.82;;;8.10;90.10;;;;;;5116616;27;20210;-71
2022/04/14 00:42:44;;;;;;;15.32;9.90;;;8.10;90.10;;;;;;5116881;27;20175;-71
2022/04/14 00:45:18;;;;;;;15.27;11.07;;;8.00;90.30;;;;;;5135192;27;20663;-71
2022/04/14 00:47:44;;;;;;;18.95;11.18;;;8.00;90.50;;;;;;5116555;27;20181;-71
2022/04/14 00:50:12;;;;;;;17.83;10.45;;;7.90;90.60;;;;;;5116491;27;20238;-71
2022/04/14 00:52:45;;;;;;;13.52;9.35;;;7.90;90.70;;;;;;5116973;27;20171;-71
2022/04/14 00:55:12;;;;;;;25.58;10.63;;;7.80;90.80;;;;;;5116616;28;20206;-71
2022/04/14 00:58:08;;;;;;;14.93;9.50;;;7.70;90.80;;;;;;5116577;28;20210;-71
2022/04/14 01:00:43;;;;;;;16.73;9.43;;;7.70;90.90;;;;;;5115590;28;20202;-71
2022/04/14 01:03:19;;;;;;;12.30;8.13;;;7.70;90.90;;;;;;5116533;27;20218;-71
2022/04/14 01:05:47;;;;;;;13.68;8.82;;;7.60;91.00;;;;;;5116434;27;20259;-71
2022/04/14 01:08:18;;;;;;;15.82;9.50;;;7.60;91.10;;;;;;5116295;28;20662;-70
2022/04/14 01:10:49;;;;;;;13.40;9.13;;;7.50;91.30;;;;;;5116148;28;20238;-71
2022/04/14 01:13:15;;;;;;;14.82;8.45;;;7.50;91.40;;;;;;5115988;28;20593;-71
2022/04/14 01:15:58;;;;;;;19.90;10.35;;;7.50;91.40;;;;;;5111548;28;20320;-71
2022/04/14 01:18:26;;;;;;;15.52;9.45;;;7.40;91.60;;;;;;5095552;28;20196;-71
2022/04/14 01:20:53;;;;;;;15.88;9.68;;;7.30;91.70;;;;;;5095480;28;20202;-70
2022/04/14 01:23:42;;;;;;;12.70;9.65;;;7.20;91.80;;;;;;5095766;28;20176;-71
2022/04/14 01:26:14;;;;;;;13.35;9.35;;;7.20;92.00;;;;;;5113734;28;20247;-71
2022/04/14 01:28:43;;;;;;;12.38;9.50;;;7.20;91.90;;;;;;5095929;28;20207;-71
2022/04/14 01:31:09;;;;;;;17.08;9.07;;;7.20;92.00;;;;;;5095162;28;20210;-71
2022/04/14 01:33:36;;;;;;;19.70;9.70;;;7.10;92.00;;;;;;5095726;28;20179;-71
2022/04/14 01:36:06;;;;;;;16.67;10.07;;;7.10;92.10;;;;;;5095761;28;20576;-71
2022/04/14 01:38:39;;;;;;;18.17;8.95;;;7.10;92.20;;;;;;5095948;28;20180;-71
2022/04/14 01:41:08;;;;;;;12.90;8.90;;;7.00;92.10;;;;;;5096374;28;20210;-71
2022/04/14 01:43:36;;;;;;;20.17;9.50;;;6.90;92.30;;;;;;5099836;28;20175;-71
2022/04/14 01:46:03;;;;;;;17.10;9.20;;;6.90;92.60;;;;;;5099801;28;20237;-71
2022/04/14 01:48:32;;;;;;;12.30;8.13;;;6.90;92.70;;;;;;5099621;28;20207;-71
2022/04/14 01:50:58;;;;;;;14.13;8.25;;;6.80;92.60;;;;;;5099427;28;20691;-71
2022/04/14 01:53:24;;;;;;;13.77;9.10;;;6.80;92.50;;;;;;5099486;28;20729;-71
2022/04/14 01:55:50;;;;;;;19.27;10.18;;;6.80;92.50;;;;;;5099269;28;20272;-71
2022/04/14 01:58:17;;;;;;;17.77;10.37;;;6.80;92.50;;;;;;5099202;28;20261;-71
2022/04/14 02:00:43;;;;;;;15.18;9.00;;;6.70;92.50;;;;;;5099623;28;20204;-71
2022/04/14 02:03:13;;;;;;;15.23;8.65;;;6.70;92.60;;;;;;5098643;28;20172;-71
2022/04/14 02:05:42;;;;;;;17.23;8.45;;;6.60;92.70;;;;;;5098693;28;20207;-71
2022/04/14 02:08:09;;;;;;;15.20;9.32;;;6.60;92.80;;;;;;5098955;28;20183;-71
2022/04/14 02:10:35;;;;;;;12.90;8.05;;;6.50;92.90;;;;;;5099124;28;20288;-71
2022/04/14 02:13:01;;;;;;;13.00;8.47;;;6.50;92.90;;;;;;5099789;28;20172;-71
2022/04/14 02:15:32;;;;;;;18.50;8.03;;;6.50;93.00;;;;;;5101398;27;20468;-71
2022/04/14 02:17:59;;;;;;;12.05;8.13;;;6.50;93.10;;;;;;5119148;27;20953;-71
2022/04/14 02:20:32;;;;;;;11.30;7.33;;;6.50;93.20;;;;;;5119023;27;20213;-70
2022/04/14 02:23:02;;;;;;;10.15;8.07;;;6.50;93.30;;;;;;5119309;27;20167;-70
2022/04/14 02:25:29;;;;;;;13.02;8.20;;;6.50;93.30;;;;;;5118892;27;20242;-71
2022/04/14 02:27:55;;;;;;;15.30;9.65;;;6.50;93.30;;;;;;5119197;27;20725;-71
2022/04/14 02:30:24;;;;;;;16.40;8.67;;;6.50;93.20;;;;;;5118993;27;20203;-71
2022/04/14 02:32:50;;;;;;;12.00;7.85;;;6.60;93.30;;;;;;5118796;27;20434;-71
2022/04/14 02:35:16;;;;;;;15.80;7.93;;;6.60;93.30;;;;;;5118966;27;20206;-71
2022/04/14 02:37:49;;;;;;;13.83;8.87;;;6.60;93.20;;;;;;5118879;27;20209;-71
2022/04/14 02:40:15;;;;;;;13.40;8.20;;;6.60;93.30;;;;;;5117716;27;20437;-71
2022/04/14 02:42:43;;;;;;;11.40;7.63;;;6.60;93.30;;;;;;5137476;27;20209;-71
2022/04/14 02:45:09;;;;;;;10.95;7.97;;;6.60;93.40;;;;;;5118634;27;20238;-71
2022/04/14 02:47:36;;;;;;;12.77;7.60;;;6.60;93.40;;;;;;5118884;27;20760;-71
2022/04/14 02:50:09;;;;;;;16.20;8.80;;;6.60;93.40;;;;;;5118903;27;20690;-71
2022/04/14 02:52:47;;;;;;;10.18;7.30;;;6.60;93.30;;;;;;5136368;27;20163;-71
2022/04/14 02:55:13;;;;;;;8.88;6.53;;;6.60;93.20;;;;;;5118630;27;20209;-71
2022/04/14 02:57:39;;;;;;;10.48;6.95;;;6.60;93.20;;;;;;5118950;27;20213;-71
2022/04/14 03:00:09;;;;;;;13.82;8.02;;;6.60;93.20;;;;;;5118510;27;20207;-71
2022/04/14 03:02:36;;;;;;;18.42;9.50;;;6.70;93.20;;;;;;5118612;27;20214;-71
2022/04/14 03:05:03;;;;;;;8.63;6.68;;;6.60;93.20;;;;;;5118738;27;20260;-71
2022/04/14 03:07:34;;;;;;;12.05;7.93;;;6.60;93.20;;;;;;5118499;27;20231;-70
2022/04/14 03:10:00;;;;;;;17.15;8.15;;;6.60;93.40;;;;;;5117557;27;20215;-70
2022/04/14 03:12:25;;;;;;;12.52;7.90;;;6.50;93.40;;;;;;5118426;27;20228;-70
2022/04/14 03:14:51;;;;;;;12.07;8.65;;;6.50;93.60;;;;;;5118136;27;20687;-70
2022/04/14 03:17:21;;;;;;;9.83;7.67;;;6.40;93.70;;;;;;5100634;28;20257;-70
2022/04/14 03:19:48;;;;;;;12.63;8.68;;;6.40;93.70;;;;;;5097790;28;20522;-70
2022/04/14 03:22:18;;;;;;;11.57;8.20;;;6.40;93.60;;;;;;5097740;28;20203;-70
2022/04/14 03:24:46;;;;;;;15.18;8.82;;;6.40;93.80;;;;;;5097473;28;20254;-70
2022/04/14 03:27:12;;;;;;;12.13;7.82;;;6.30;93.70;;;;;;5097839;28;20175;-71
2022/04/14 03:29:37;;;;;;;13.47;8.03;;;6.30;93.60;;;;;;5097578;28;20579;-71
2022/04/14 03:32:05;;;;;;;14.97;8.17;;;6.30;93.80;;;;;;5097686;28;20385;-71
2022/04/14 03:34:31;;;;;;;15.57;8.68;;;6.40;93.80;;;;;;5097410;28;20444;-71
2022/04/14 03:36:59;;;;;;;14.48;7.60;;;6.40;93.90;;;;;;5097395;28;20218;-70
2022/04/14 03:39:26;;;;;;;10.25;7.28;;;6.40;93.80;;;;;;5097347;28;20558;-70
2022/04/14 03:41:53;;;;;;;17.23;9.05;;;6.40;93.90;;;;;;5097417;28;20172;-70
2022/04/14 03:44:22;;;;;;;15.18;7.90;;;6.40;93.80;;;;;;5097288;28;20214;-70
2022/04/14 03:46:49;;;;;;;12.65;8.27;;;6.40;93.90;;;;;;5097020;28;20176;-70
2022/04/14 03:49:16;;;;;;;13.82;7.03;;;6.40;93.80;;;;;;5097216;28;20222;-70
2022/04/14 03:51:42;;;;;;;13.53;8.10;;;6.40;93.80;;;;;;5097120;28;20172;-70
2022/04/14 03:54:09;;;;;;;10.37;8.10;;;6.50;93.80;;;;;;5097052;28;20420;-70
2022/04/14 03:56:38;;;;;;;12.45;7.47;;;6.50;93.60;;;;;;5096791;28;20430;-70
2022/04/14 03:59:13;;;;;;;13.57;7.45;;;6.50;93.70;;;;;;5096285;28;20283;-70
2022/04/14 04:01:39;;;;;;;13.02;8.05;;;6.50;93.70;;;;;;5097269;28;20628;-70
2022/04/14 04:04:05;;;;;;;14.77;6.85;;;6.50;93.50;;;;;;5096406;28;20920;-70
2022/04/14 04:06:34;;;;;;;11.40;8.40;;;6.50;93.40;;;;;;5097123;28;20171;-70
2022/04/14 04:09:03;;;;;;;32.83;12.50;;;6.50;93.30;;;;;;5114871;28;20378;-70
2022/04/14 04:11:29;;;;;;;49.92;21.60;;;6.40;93.30;;;;;;5115175;28;20213;-70
2022/04/14 04:14:00;;;;;;;27.52;16.10;;;6.50;93.40;;;;;;5096702;28;20183;-70
2022/04/14 04:16:26;;;;;;;27.10;13.48;;;6.50;93.70;;;;;;5107108;27;20229;-70
2022/04/14 04:19:01;;;;;;;22.83;11.68;;;6.50;93.80;;;;;;5116868;27;20174;-70
2022/04/14 04:21:29;;;;;;;23.55;10.43;;;6.50;94.00;;;;;;5117043;27;20175;-70
2022/04/14 04:23:55;;;;;;;24.35;11.23;;;6.50;94.00;;;;;;5116470;27;20801;-70
2022/04/14 04:26:26;;;;;;;23.83;11.70;;;6.50;93.60;;;;;;5135155;27;20215;-70
2022/04/14 04:28:52;;;;;;;19.75;9.68;;;6.50;93.70;;;;;;5117036;27;20167;-70
2022/04/14 04:31:18;;;;;;;18.98;10.02;;;6.60;94.20;;;;;;5116652;27;20167;-70
2022/04/14 04:33:45;;;;;;;17.77;10.53;;;6.60;94.80;;;;;;5116914;27;20171;-70
2022/04/14 04:36:11;;;;;;;16.30;10.30;;;6.70;95.20;;;;;;5116505;27;20463;-70
2022/04/14 04:38:39;;;;;;;20.67;9.87;;;6.90;95.60;;;;;;5116670;27;20233;-70
2022/04/14 04:41:07;;;;;;;16.38;8.63;;;6.90;95.80;;;;;;5114277;28;20443;-70
2022/04/14 04:43:34;;;;;;;10.50;7.88;;;7.00;96.10;;;;;;5113438;28;20175;-70
2022/04/14 04:45:59;;;;;;;12.20;8.25;;;7.20;96.40;;;;;;5113233;28;20208;-70
2022/04/14 04:48:25;;;;;;;13.97;8.67;;;7.30;96.60;;;;;;5113461;28;20186;-70
2022/04/14 04:50:53;;;;;;;18.63;9.35;;;7.40;96.70;;;;;;5112826;28;20926;-70
2022/04/14 04:53:25;;;;;;;17.85;10.65;;;7.40;94.90;;;;;;5113053;28;20172;-70
2022/04/14 04:56:03;;;;;;;18.55;11.48;;;7.50;94.20;;;;;;5112747;28;20199;-70
2022/04/14 04:58:34;;;;;;;26.85;13.23;;;7.50;93.80;;;;;;5112110;28;20578;-70
2022/04/14 05:01:00;;;;;;;27.83;14.27;;;7.60;93.60;;;;;;5112395;28;20196;-70
2022/04/14 05:03:26;;;;;;;22.23;12.00;;;7.60;93.50;;;;;;5112609;28;20183;-70
2022/04/14 05:05:52;;;;;;;26.47;12.73;;;7.70;93.30;;;;;;5112889;28;20223;-70
2022/04/14 05:08:18;;;;;;;20.83;11.15;;;7.80;93.30;;;;;;5112817;28;20947;-70
2022/04/14 05:10:45;;;;;;;19.63;11.48;;;7.80;93.00;;;;;;5112705;28;20290;-70
2022/04/14 05:13:16;;;;;;;19.23;10.98;;;8.00;93.00;;;;;;5112570;28;20258;-70
2022/04/14 05:15:42;;;;;;;21.63;12.68;;;8.10;93.00;;;;;;5116236;28;20306;-71
2022/04/14 05:18:11;;;;;;;27.27;13.70;;;8.20;92.70;;;;;;5138803;27;20624;-70
2022/04/14 05:20:38;;;;;;;339.63;161.45;;;8.30;92.50;;;;;;5138833;27;20230;-71
2022/04/14 05:23:11;;;;;;;28.38;13.20;;;8.30;92.10;;;;;;5120411;27;20175;-71
2022/04/14 05:25:42;;;;;;;18.05;11.40;;;8.40;92.20;;;;;;5119562;27;20330;-71
2022/04/14 05:28:16;;;;;;;18.05;9.43;;;8.50;92.20;;;;;;5119898;27;20266;-71
2022/04/14 05:30:51;;;;;;;15.15;9.40;;;8.50;92.40;;;;;;5118266;27;20202;-71
2022/04/14 05:33:17;;;;;;;16.25;9.80;;;8.60;92.50;;;;;;5099287;28;20207;-71
2022/04/14 05:35:45;;;;;;;16.30;10.13;;;8.70;92.80;;;;;;5099466;28;20340;-71
2022/04/14 05:38:11;;;;;;;17.17;9.27;;;8.80;92.70;;;;;;5099918;28;20204;-71
2022/04/14 05:40:41;;;;;;;12.30;8.65;;;8.90;92.70;;;;;;5099445;28;20252;-71
2022/04/14 05:43:16;;;;;;;18.20;8.75;;;9.00;92.50;;;;;;5098560;28;20219;-71
2022/04/14 05:45:47;;;;;;;12.60;8.52;;;9.00;92.20;;;;;;5096436;28;20211;-71
2022/04/14 05:48:31;;;;;;;11.75;7.75;;;9.10;91.70;;;;;;5098377;28;20600;-71
2022/04/14 05:50:58;;;;;;;15.98;8.23;;;9.30;91.20;;;;;;5098860;28;20203;-72
2022/04/14 05:53:31;;;;;;;10.40;6.47;;;9.40;91.00;;;;;;5099240;28;20172;-71
2022/04/14 05:55:58;;;;;;;11.65;7.10;;;9.50;90.60;;;;;;5099449;28;20243;-71
2022/04/14 05:58:27;;;;;;;12.05;7.88;;;9.70;90.40;;;;;;5099082;28;20214;-71
2022/04/14 06:00:58;;;;;;;8.50;6.43;;;9.80;90.30;;;;;;5099276;28;20200;-71
2022/04/14 06:04:08;;;;;;;9.00;5.90;;;10.00;90.00;;;;;;5099103;28;20262;-71
2022/04/14 06:06:36;;;;;;;20.17;6.20;;;10.10;89.20;;;;;;5097217;28;20219;-71
2022/04/14 06:09:19;;;;;;;7.45;5.72;;;10.20;88.90;;;;;;5094619;28;20174;-70
2022/04/14 06:11:59;;;;;;;8.27;5.07;;;10.40;88.60;;;;;;5095584;28;20190;-70
2022/04/14 06:14:51;;;;;;;8.40;5.60;;;10.50;88.20;;;;;;5097101;28;20610;-71
2022/04/14 06:17:17;;;;;;;6.88;5.50;;;10.70;87.30;;;;;;5097545;28;20695;-70
2022/04/14 06:19:44;;;;;;;7.40;6.00;;;10.90;86.80;;;;;;5096077;28;20192;-70
2022/04/14 06:22:11;;;;;;;12.60;5.75;;;11.00;86.50;;;;;;5097238;28;20644;-70
2022/04/14 06:24:41;;;;;;;8.13;4.65;;;11.20;86.50;;;;;;5098448;28;20239;-71
2022/04/14 06:27:14;;;;;;;9.25;6.55;;;11.40;86.40;;;;;;5098476;28;20541;-70
2022/04/14 06:29:42;;;;;;;9.80;6.15;;;11.50;86.30;;;;;;5089046;28;20204;-70
2022/04/14 06:32:08;;;;;;;11.25;6.95;;;11.70;84.60;;;;;;5087100;28;20180;-71
2022/04/14 06:34:38;;;;;;;8.18;6.20;;;11.90;84.50;;;;;;5095484;28;20293;-71
2022/04/14 06:37:07;;;;;;;6.53;5.28;;;12.00;83.70;;;;;;5096595;28;20275;-71
2022/04/14 06:39:42;;;;;;;8.20;6.22;;;12.20;82.80;;;;;;5097042;28;20191;-70
2022/04/14 06:42:12;;;;;;;7.30;5.63;;;12.40;82.50;;;;;;5096817;28;20538;-70
2022/04/14 06:44:38;;;;;;;6.43;4.60;;;12.50;82.70;;;;;;5097895;28;20692;-70
2022/04/14 06:47:21;;;;;;;7.95;5.88;;;12.70;81.70;;;;;;5098268;28;20180;-71
2022/04/14 06:49:52;;;;;;;8.95;6.07;;;12.90;81.60;;;;;;5097034;28;20200;-71
2022/04/14 06:52:20;;;;;;;7.93;4.85;;;13.10;80.70;;;;;;5094232;28;20184;-71
2022/04/14 06:54:51;;;;;;;7.60;5.63;;;13.20;80.60;;;;;;5093223;28;20396;-70
2022/04/14 06:57:19;;;;;;;7.67;4.80;;;13.40;79.90;;;;;;5093877;28;20566;-71
2022/04/14 06:59:46;;;;;;;8.80;5.23;;;13.50;79.60;;;;;;5096143;28;20775;-71
2022/04/14 07:02:14;;;;;;;8.27;5.13;;;13.60;78.40;;;;;;5096709;28;20518;-71
2022/04/14 07:04:40;;;;;;;7.63;4.83;;;13.80;77.30;;;;;;5095540;28;20959;-71
2022/04/14 07:07:06;;;;;;;8.07;5.83;;;13.90;77.90;;;;;;5095163;28;20443;-72
2022/04/14 07:09:33;;;;;;;9.57;5.27;;;14.00;78.80;;;;;;5095754;28;20423;-71
2022/04/14 07:12:02;;;;;;;6.33;3.90;;;14.20;78.50;;;;;;5095392;28;20436;-71
2022/04/14 07:14:38;;;;;;;9.20;4.20;;;14.30;77.50;;;;;;5095967;28;20472;-71
2022/04/14 07:17:04;;;;;;;4.70;3.70;;;14.40;76.80;;;;;;5095781;28;20879;-72
2022/04/14 07:19:59;;;;;;;7.40;4.10;;;14.60;76.90;;;;;;5095862;28;20424;-71
2022/04/14 07:22:28;;;;;;;4.27;3.23;;;14.70;74.60;;;;;;5097046;28;20440;-72
2022/04/14 07:24:55;;;;;;;4.53;3.80;;;14.90;73.60;;;;;;5097108;28;20482;-72
2022/04/14 07:27:25;;;;;;;3.90;3.53;;;15.00;73.00;;;;;;5095788;28;20458;-71
2022/04/14 07:29:54;;;;;;;4.10;3.40;;;15.20;71.90;;;;;;5097232;28;20848;-71
2022/04/14 07:32:22;;;;;;;5.33;3.90;;;15.30;72.90;;;;;;5114722;28;20478;-71
2022/04/14 07:34:48;;;;;;;4.00;3.60;;;15.40;72.80;;;;;;5097097;28;20496;-71
2022/04/14 07:37:18;;;;;;;4.80;3.43;;;15.50;72.20;;;;;;5097289;28;20566;-71
2022/04/14 07:39:44;;;;;;;5.60;4.10;;;15.70;71.70;;;;;;5096987;28;20440;-71
2022/04/14 07:42:10;;;;;;;4.63;3.10;;;15.80;70.10;;;;;;5097045;28;20420;-71
2022/04/14 07:44:36;;;;;;;4.93;3.87;;;15.90;69.70;;;;;;5113171;28;20489;-71
2022/04/14 07:47:03;;;;;;;5.90;4.00;;;16.00;68.50;;;;;;5114169;28;20462;-71
2022/04/14 07:49:38;;;;;;;6.40;3.80;;;16.10;68.00;;;;;;5097032;28;20562;-71
2022/04/14 07:52:04;;;;;;;5.30;3.90;;;16.20;68.60;;;;;;5097163;28;20531;-71
2022/04/14 07:54:34;;;;;;;4.73;4.23;;;16.30;68.60;;;;;;5096894;28;20800;-72
2022/04/14 07:57:11;;;;;;;4.43;3.93;;;16.40;68.90;;;;;;5114154;28;21140;-72
2022/04/14 07:59:39;;;;;;;5.60;3.80;;;16.40;68.90;;;;;;5096926;28;20427;-72
2022/04/14 08:02:08;;;;;;;6.43;4.63;;;16.60;68.50;;;;;;5096848;28;20773;-72
2022/04/14 08:04:37;;;;;;;6.20;3.63;;;16.70;68.70;;;;;;5095393;28;20433;-72
2022/04/14 08:07:04;;;;;;;6.40;4.50;;;16.80;69.60;;;;;;5091440;28;20861;-72
2022/04/14 08:09:34;;;;;;;5.63;4.70;;;17.00;68.70;;;;;;5075166;28;20424;-72
2022/04/14 08:12:14;;;;;;;4.90;4.40;;;17.10;68.50;;;;;;5074064;28;20433;-72
2022/04/14 08:14:51;;;;;;;4.07;3.67;;;17.20;68.40;;;;;;5058090;28;20436;-72
2022/04/14 08:17:17;;;;;;;4.40;2.97;;;17.30;68.60;;;;;;5091568;28;20472;-73
2022/04/14 08:19:43;;;;;;;3.73;3.40;;;17.40;67.90;;;;;;5074681;28;20881;-72
2022/04/14 08:22:09;;;;;;;4.93;3.63;;;17.60;65.60;;;;;;5075075;28;20503;-73
2022/04/14 08:24:37;;;;;;;4.40;3.70;;;17.70;67.10;;;;;;5075929;28;20446;-72
2022/04/14 08:27:06;;;;;;;5.03;3.63;;;17.80;65.90;;;;;;5076631;28;20778;-74
2022/04/14 08:29:40;;;;;;;3.80;3.50;;;17.90;64.60;;;;;;5083598;28;20439;-72
2022/04/14 08:32:09;;;;;;;4.93;3.90;;;18.00;66.30;;;;;;5095844;28;20437;-73
2022/04/14 08:34:45;;;;;;;3.93;3.53;;;18.10;64.00;;;;;;5075695;28;20445;-73
2022/04/14 08:37:13;;;;;;;7.17;3.70;;;18.20;63.50;;;;;;5089931;28;20468;-72
2022/04/14 08:39:51;;;;;;;3.77;2.93;;;18.40;64.20;;;;;;5094733;28;20876;-72
2022/04/14 08:42:25;;;;;;;3.37;3.00;;;18.50;62.50;;;;;;5094033;28;20939;-72
2022/04/14 08:45:02;;;;;;;4.77;3.73;;;18.60;66.00;;;;;;5094168;28;20463;-72
2022/04/14 08:47:30;;;;;;;3.40;3.07;;;18.70;64.00;;;;;;5113516;28;20831;-73
2022/04/14 08:49:58;;;;;;;6.60;3.57;;;18.90;68.00;;;;;;5094740;28;20517;-72
2022/04/14 08:52:26;;;;;;;5.83;3.50;;;19.40;64.20;;;;;;5095324;28;20444;-73
2022/04/14 08:54:56;;;;;;;3.90;3.50;;;20.10;62.50;;;;;;5112958;28;20462;-73
2022/04/14 08:57:25;;;;;;;5.37;3.37;;;20.90;60.40;;;;;;5095899;28;20480;-74
2022/04/14 08:59:57;;;;;;;5.17;3.50;;;21.70;59.70;;;;;;5095136;28;20419;-73
2022/04/14 09:02:23;;;;;;;5.93;3.73;;;22.40;60.20;;;;;;5093724;28;20481;-73
2022/04/14 09:04:51;;;;;;;8.23;3.87;;;23.00;58.10;;;;;;5092483;28;20467;-73
2022/04/14 09:07:19;;;;;;;4.50;3.30;;;23.50;56.90;;;;;;5092036;28;20493;-73
2022/04/14 09:09:48;;;;;;;3.70;2.93;;;23.80;56.90;;;;;;5091942;28;20944;-73
2022/04/14 09:12:20;;;;;;;3.17;2.87;;;23.90;56.80;;;;;;5091911;28;20865;-73
2022/04/14 09:14:47;;;;;;;3.13;2.60;;;23.90;54.60;;;;;;5091774;28;20964;-73
2022/04/14 09:17:19;;;;;;;3.90;3.50;;;23.70;54.50;;;;;;5091573;28;20527;-71
2022/04/14 09:19:45;;;;;;;6.73;3.73;;;23.70;54.90;;;;;;5091662;28;21263;-70
2022/04/14 09:22:15;;;;;;;3.47;2.67;;;23.60;55.40;;;;;;5092149;28;20531;-71
2022/04/14 09:24:50;;;;;;;7.03;3.23;;;23.40;57.00;;;;;;5093190;28;20463;-71
2022/04/14 09:27:37;;;;;;;3.23;2.90;;;23.30;55.50;;;;;;5093390;28;20439;-71
2022/04/14 09:30:11;;;;;;;4.27;3.87;;;23.10;54.40;;;;;;5092871;28;20459;-71
2022/04/14 09:32:44;;;;;;;4.10;3.70;;;23.00;54.10;;;;;;5086782;28;20435;-71
2022/04/14 09:35:23;;;;;;;5.47;3.40;;;23.00;54.10;;;;;;5091774;28;20987;-71
2022/04/14 09:38:13;;;;;;;4.80;3.70;;;22.90;54.90;;;;;;5091665;28;20483;-71
2022/04/14 09:40:43;;;;;;;5.27;3.10;;;22.80;55.70;;;;;;5089852;28;20445;-71
2022/04/14 09:43:09;;;;;;;3.63;2.83;;;22.70;56.00;;;;;;5108100;28;20975;-71
2022/04/14 09:45:35;;;;;;;3.60;2.87;;;22.60;55.70;;;;;;5090845;28;20455;-70
2022/04/14 09:48:12;;;;;;;7.53;3.50;;;22.50;56.10;;;;;;5094403;28;20444;-71
2022/04/14 09:50:43;;;;;;;4.63;2.93;;;22.40;56.60;;;;;;5087570;28;20448;-71
2022/04/14 09:53:10;;;;;;;4.07;2.90;;;22.20;59.20;;;;;;5083376;28;20429;-71
2022/04/14 09:55:41;;;;;;;3.40;3.10;;;22.10;55.70;;;;;;5084590;28;20565;-71
2022/04/14 09:58:15;;;;;;;3.63;2.70;;;22.10;56.30;;;;;;5075821;28;20889;-71
2022/04/14 10:00:55;;;;;;;2.97;2.73;;;22.00;54.60;;;;;;5090004;28;20471;-71
2022/04/14 10:03:24;;;;;;;3.10;2.67;;;21.90;55.00;;;;;;5087640;28;20844;-71
2022/04/14 10:06:02;;;;;;;3.33;2.53;;;21.90;56.00;;;;;;5092399;28;20486;-71
2022/04/14 10:08:52;;;;;;;3.00;2.70;;;21.90;58.00;;;;;;5087880;28;20978;-71
2022/04/14 10:11:30;;;;;;;5.73;3.50;;;21.90;55.80;;;;;;5086606;28;20436;-71
2022/04/14 10:14:27;;;;;;;3.50;2.50;;;21.90;55.80;;;;;;5097793;28;20415;-72
2022/04/14 10:17:03;;;;;;;4.90;3.73;;;21.90;55.10;;;;;;5096887;28;20464;-72
2022/04/14 10:19:33;;;;;;;2.97;2.57;;;21.90;54.70;;;;;;5091850;28;20482;-72
2022/04/14 10:22:09;;;;;;;3.30;2.70;;;21.90;56.20;;;;;;5092252;28;20869;-72
2022/04/14 10:24:53;;;;;;;3.27;2.97;;;21.90;56.50;;;;;;5092010;28;20455;-72
2022/04/14 10:27:28;;;;;;;3.57;2.67;;;21.90;56.20;;;;;;5084140;28;20434;-72
2022/04/14 10:29:56;;;;;;;3.70;2.47;;;21.80;54.40;;;;;;5075300;28;20780;-72
2022/04/14 10:32:23;;;;;;;3.17;2.97;;;21.90;53.90;;;;;;5075722;28;20468;-72
2022/04/14 10:34:55;;;;;;;3.47;3.13;;;21.80;54.40;;;;;;5080699;28;20431;-72
2022/04/14 10:37:40;;;;;;;5.00;3.50;;;21.80;54.80;;;;;;5081358;28;20475;-72
2022/04/14 10:40:13;;;;;;;4.10;2.80;;;21.80;57.80;;;;;;5076771;28;20536;-72
2022/04/14 10:42:50;;;;;;;3.60;2.80;;;21.90;56.20;;;;;;5079027;28;20445;-72
2022/04/14 10:45:25;;;;;;;3.67;3.37;;;21.90;57.70;;;;;;5081178;28;20451;-72
2022/04/14 10:47:51;;;;;;;3.17;2.80;;;21.90;55.20;;;;;;5096856;28;20432;-72
2022/04/14 10:50:22;;;;;;;3.97;2.07;;;22.00;56.10;;;;;;5082796;28;20841;-72
2022/04/14 10:53:03;;;;;;;3.63;3.03;;;22.00;56.00;;;;;;5095123;28;20538;-72
2022/04/14 10:55:40;;;;;;;4.37;2.87;;;22.00;59.40;;;;;;5058756;28;20536;-71
2022/04/14 10:58:38;;;;;;;3.47;3.00;;;22.10;54.60;;;;;;5076696;28;20485;-72
2022/04/14 11:01:04;;;;;;;3.50;2.60;;;22.20;53.10;;;;;;5054196;28;20454;-72
2022/04/14 11:03:48;;;;;;;4.20;2.87;;;22.20;52.60;;;;;;5069373;28;20511;-72
2022/04/14 11:06:42;;;;;;;7.17;4.00;;;22.20;53.60;;;;;;5089800;28;20500;-72
2022/04/14 11:09:41;;;;;;;6.47;3.80;;;22.20;53.00;;;;;;5083165;28;20969;-72
2022/04/14 11:12:23;;;;;;;2.40;2.13;;;22.20;53.70;;;;;;5073423;28;20535;-72
2022/04/14 11:15:01;;;;;;;4.43;2.37;;;22.20;53.00;;;;;;5078863;28;20441;-72
2022/04/14 11:17:42;;;;;;;2.93;2.40;;;22.20;52.90;;;;;;5068159;28;20827;-72
2022/04/14 11:20:28;;;;;;;4.13;3.27;;;22.20;54.00;;;;;;5072296;28;20544;-71
2022/04/14 11:23:15;;;;;;;3.77;2.40;;;22.30;55.80;;;;;;5081946;28;20455;-72
2022/04/14 11:25:51;;;;;;;3.87;2.30;;;22.30;55.70;;;;;;5071521;28;20559;-72
2022/04/14 11:28:22;;;;;;;3.30;3.00;;;22.40;53.20;;;;;;5073935;28;20441;-72
2022/04/14 11:31:03;;;;;;;2.90;2.50;;;22.40;52.80;;;;;;5075184;28;20444;-72
2022/04/14 11:33:31;;;;;;;2.90;2.57;;;22.40;54.60;;;;;;5085549;28;20542;-72
2022/04/14 11:36:50;;;;;;;4.33;2.30;;;22.40;57.90;;;;;;5101073;28;20438;-72
2022/04/14 11:39:23;;;;;;;3.53;2.93;;;22.40;58.40;;;;;;5050048;28;20223;-71
2022/04/14 11:41:50;;;;;;;2.57;2.37;;;22.30;60.70;;;;;;5059506;28;20426;-72
2022/04/14 11:44:30;;;;;;;3.50;2.90;;;22.20;60.40;;;;;;5070962;28;20483;-72
2022/04/14 11:47:05;;;;;;;4.60;3.00;;;22.30;56.40;;;;;;5075104;28;20765;-71
2022/04/14 11:49:36;;;;;;;5.33;3.73;;;22.40;55.30;;;;;;5082567;28;20444;-72
2022/04/14 11:52:07;;;;;;;2.87;2.20;;;22.50;53.50;;;;;;5082904;28;21019;-72
2022/04/14 11:54:39;;;;;;;3.13;2.83;;;22.50;54.10;;;;;;5062788;28;20972;-71
2022/04/14 11:57:13;;;;;;;3.70;2.23;;;22.60;54.80;;;;;;5076887;28;20472;-71
2022/04/14 11:59:42;;;;;;;3.40;3.00;;;22.60;54.70;;;;;;5086318;28;20433;-71
2022/04/14 12:02:18;;;;;;;4.10;3.10;;;22.70;54.50;;;;;;5088376;28;20492;-71
2022/04/14 12:04:56;;;;;;;4.30;2.53;;;22.80;54.40;;;;;;5071373;28;21034;-71
2022/04/14 12:07:30;;;;;;;2.93;2.43;;;22.80;55.00;;;;;;5071057;28;20511;-71
2022/04/14 12:10:02;;;;;;;3.53;2.90;;;22.80;57.20;;;;;;5085874;28;20531;-71
2022/04/14 12:12:39;;;;;;;2.87;2.60;;;22.80;56.30;;;;;;5092296;28;20844;-71
2022/04/14 12:15:08;;;;;;;3.77;2.77;;;22.80;58.60;;;;;;5088697;28;20910;-71
2022/04/14 12:17:42;;;;;;;3.47;2.83;;;22.80;58.60;;;;;;5072765;28;20480;-71
2022/04/14 12:20:09;;;;;;;3.20;2.90;;;22.70;60.30;;;;;;5071562;28;20440;-71
2022/04/14 12:22:39;;;;;;;2.73;2.53;;;22.60;61.20;;;;;;5065154;28;20831;-71
2022/04/14 12:25:09;;;;;;;2.90;2.70;;;22.60;57.40;;;;;;5062223;28;20484;-72
2022/04/14 12:27:38;;;;;;;2.67;2.00;;;22.70;56.40;;;;;;5085315;28;20459;-71
2022/04/14 12:30:15;;;;;;;4.07;2.73;;;22.60;60.50;;;;;;5082517;28;20997;-72
2022/04/14 12:32:46;;;;;;;3.13;2.60;;;22.70;60.10;;;;;;5105246;28;20863;-72
2022/04/14 12:35:29;;;;;;;3.70;2.90;;;22.70;56.70;;;;;;5087416;28;20524;-72
2022/04/14 12:38:17;;;;;;;2.60;2.40;;;22.80;57.60;;;;;;5092100;28;20494;-72
2022/04/14 12:40:57;;;;;;;3.10;2.80;;;22.80;54.40;;;;;;5094195;28;20438;-72
2022/04/14 12:43:47;;;;;;;2.67;2.47;;;22.90;57.40;;;;;;5093254;28;20420;-72
2022/04/14 12:46:26;;;;;;;2.97;2.50;;;22.90;58.20;;;;;;5091957;28;20999;-72
2022/04/14 12:49:21;;;;;;;5.13;3.13;;;22.90;54.80;;;;;;5095681;28;20404;-72
2022/04/14 12:52:04;;;;;;;5.07;3.37;;;23.00;53.70;;;;;;5090089;28;20449;-72
2022/04/14 12:54:32;;;;;;;3.17;2.83;;;23.00;53.40;;;;;;5096309;27;20447;-71
2022/04/14 12:57:09;;;;;;;3.20;2.90;;;23.00;54.50;;;;;;5091067;28;20470;-73
2022/04/14 12:59:38;;;;;;;3.40;2.90;;;23.10;53.70;;;;;;5093031;28;20439;-72
2022/04/14 13:02:08;;;;;;;2.60;2.40;;;23.10;54.50;;;;;;5095276;28;20430;-73
2022/04/14 13:04:40;;;;;;;2.67;2.47;;;23.10;53.50;;;;;;5094538;28;20452;-73
2022/04/14 13:07:13;;;;;;;2.80;2.43;;;23.10;55.40;;;;;;5090383;28;21051;-74
2022/04/14 13:10:02;;;;;;;3.40;3.10;;;23.20;54.50;;;;;;5101139;28;20800;-73